Time;durP1;ratioP1;P1;durP2;ratioP2;P2;SDS_P1;SDS_P2;PMS_P1;PMS_P2;Temp;Humidity;BMP_temperature;BMP_pressure;BME280_temperature;BME280_humidity;BME280_pressure;Samples;Min_cycle;Max_cycle;Signal;HPM_P1;HPM_P2
2021/01/08 00:00:13;;;;;;;24.97;14.50;;;1.20;99.90;;;;;;5040480;28;20311;-91
2021/01/08 00:02:39;;;;;;;24.40;14.73;;;1.30;99.90;;;;;;5040050;28;20181;-91
2021/01/08 00:05:16;;;;;;;25.23;15.77;;;1.30;99.90;;;;;;5040309;28;20182;-91
2021/01/08 00:07:41;;;;;;;23.37;14.60;;;1.30;99.90;;;;;;5040679;28;20212;-91
2021/01/08 00:10:08;;;;;;;22.37;14.37;;;1.30;99.90;;;;;;5040432;28;20170;-90
2021/01/08 00:12:35;;;;;;;20.57;13.60;;;1.30;99.90;;;;;;5040367;28;20193;-90
2021/01/08 00:15:08;;;;;;;22.63;14.10;;;1.30;99.90;;;;;;5057868;28;20177;-90
2021/01/08 00:17:34;;;;;;;20.40;13.50;;;1.30;99.90;;;;;;5023931;28;20227;-90
2021/01/08 00:20:00;;;;;;;22.67;14.57;;;1.40;99.90;;;;;;5040299;28;20516;-91
2021/01/08 00:22:26;;;;;;;21.10;13.63;;;1.40;99.90;;;;;;5040481;28;20493;-91
2021/01/08 00:24:53;;;;;;;20.93;13.93;;;1.30;99.90;;;;;;5039318;28;20189;-91
2021/01/08 00:27:20;;;;;;;22.33;14.73;;;1.30;99.90;;;;;;5040246;28;20530;-91
2021/01/08 00:29:46;;;;;;;22.13;14.00;;;1.30;99.90;;;;;;5040203;28;20184;-90
2021/01/08 00:32:12;;;;;;;20.40;13.30;;;1.30;99.90;;;;;;5040217;28;20177;-91
2021/01/08 00:34:40;;;;;;;22.60;13.30;;;1.40;99.90;;;;;;5040514;28;20196;-91
2021/01/08 00:37:06;;;;;;;22.70;14.43;;;1.30;99.90;;;;;;5039735;28;20622;-91
2021/01/08 00:39:33;;;;;;;20.13;13.33;;;1.30;99.90;;;;;;5040840;28;20232;-91
2021/01/08 00:41:58;;;;;;;20.00;12.87;;;1.30;99.90;;;;;;5040285;28;20199;-91
2021/01/08 00:44:24;;;;;;;22.10;13.40;;;1.40;99.90;;;;;;5043366;28;20302;-91
2021/01/08 00:46:51;;;;;;;21.20;13.37;;;1.40;99.90;;;;;;5062433;28;20677;-91
2021/01/08 00:49:17;;;;;;;19.50;13.33;;;1.30;99.90;;;;;;5027778;28;20194;-91
2021/01/08 00:51:44;;;;;;;20.03;12.80;;;1.30;99.90;;;;;;5040896;28;20220;-90
2021/01/08 00:54:10;;;;;;;21.37;13.37;;;1.40;99.90;;;;;;5039314;28;20185;-90
2021/01/08 00:56:36;;;;;;;18.60;12.97;;;1.40;99.90;;;;;;5039022;28;20185;-90
2021/01/08 00:59:03;;;;;;;18.67;12.40;;;1.30;99.90;;;;;;5053697;28;20188;-90
2021/01/08 01:01:29;;;;;;;18.03;12.40;;;1.40;99.90;;;;;;5060078;28;20249;-90
2021/01/08 01:03:55;;;;;;;19.97;13.07;;;1.40;99.90;;;;;;5071394;28;20257;-90
2021/01/08 01:06:25;;;;;;;21.13;12.83;;;1.40;99.90;;;;;;5041683;28;20193;-90
2021/01/08 01:08:52;;;;;;;19.03;12.90;;;1.40;99.90;;;;;;5040388;28;20224;-90
2021/01/08 01:11:19;;;;;;;19.27;12.20;;;1.40;99.90;;;;;;5040068;28;20207;-90
2021/01/08 01:13:46;;;;;;;19.27;12.40;;;1.40;99.90;;;;;;5039964;28;20183;-90
2021/01/08 01:16:16;;;;;;;17.67;11.83;;;1.40;99.90;;;;;;5039559;28;20174;-90
2021/01/08 01:18:43;;;;;;;20.67;13.37;;;1.40;99.90;;;;;;5040009;28;20260;-90
2021/01/08 01:21:10;;;;;;;17.73;11.93;;;1.40;99.90;;;;;;5039661;28;20185;-90
2021/01/08 01:23:36;;;;;;;18.23;11.90;;;1.40;99.90;;;;;;5039466;28;20185;-90
2021/01/08 01:26:02;;;;;;;19.77;13.50;;;1.40;99.90;;;;;;5039384;28;20217;-91
2021/01/08 01:28:28;;;;;;;18.43;12.37;;;1.40;99.90;;;;;;5039813;28;20557;-90
2021/01/08 01:30:54;;;;;;;19.00;12.57;;;1.40;99.90;;;;;;5040639;28;20173;-91
2021/01/08 01:33:20;;;;;;;18.40;12.27;;;1.40;99.90;;;;;;5040081;28;20265;-91
2021/01/08 01:35:45;;;;;;;17.13;11.97;;;1.50;99.90;;;;;;5040366;28;20663;-91
2021/01/08 01:38:11;;;;;;;18.70;12.43;;;1.50;99.90;;;;;;5039946;28;20677;-91
2021/01/08 01:40:37;;;;;;;18.37;12.43;;;1.50;99.90;;;;;;5039935;28;20279;-91
2021/01/08 01:43:04;;;;;;;21.03;12.83;;;1.40;99.90;;;;;;5044088;28;20190;-91
2021/01/08 01:45:37;;;;;;;18.37;12.33;;;1.40;99.90;;;;;;5020635;28;20260;-92
2021/01/08 01:48:03;;;;;;;18.60;12.57;;;1.40;99.90;;;;;;5038340;28;20244;-91
2021/01/08 01:50:29;;;;;;;20.60;13.77;;;1.40;99.90;;;;;;5020941;28;20178;-90
2021/01/08 01:52:55;;;;;;;18.60;12.23;;;1.40;99.90;;;;;;5022936;28;20188;-91
2021/01/08 01:55:23;;;;;;;22.00;13.77;;;1.40;99.90;;;;;;5038975;28;20201;-90
2021/01/08 01:57:50;;;;;;;17.87;12.50;;;1.40;99.90;;;;;;5006733;28;20210;-90
2021/01/08 02:00:16;;;;;;;21.60;14.33;;;1.40;99.90;;;;;;5021564;28;20193;-91
2021/01/08 02:02:45;;;;;;;20.50;13.53;;;1.40;99.90;;;;;;5020765;28;20184;-91
2021/01/08 02:05:15;;;;;;;20.30;13.40;;;1.40;99.90;;;;;;5020418;28;20206;-91
2021/01/08 02:07:58;;;;;;;20.30;13.30;;;1.40;99.90;;;;;;5020084;28;20220;-90
2021/01/08 02:10:28;;;;;;;19.63;12.60;;;1.40;99.90;;;;;;5021169;28;20205;-91
2021/01/08 02:12:58;;;;;;;20.17;13.93;;;1.40;99.90;;;;;;5030771;28;20201;-91
2021/01/08 02:15:25;;;;;;;20.97;13.30;;;1.40;99.90;;;;;;5040045;28;20187;-90
2021/01/08 02:17:51;;;;;;;20.57;13.37;;;1.40;99.90;;;;;;5040079;28;20525;-90
2021/01/08 02:20:17;;;;;;;19.53;12.97;;;1.40;99.90;;;;;;5057358;28;20260;-90
2021/01/08 02:23:09;;;;;;;19.90;13.57;;;1.40;99.90;;;;;;5054844;28;20311;-90
2021/01/08 02:25:38;;;;;;;20.10;13.20;;;1.40;99.90;;;;;;5051366;28;20188;-91
2021/01/08 02:28:03;;;;;;;24.07;14.10;;;1.40;99.90;;;;;;5038917;28;20308;-90
2021/01/08 02:30:30;;;;;;;18.80;12.73;;;1.40;99.90;;;;;;5038478;28;20208;-91
2021/01/08 02:32:57;;;;;;;19.40;12.87;;;1.40;99.90;;;;;;5038174;28;20187;-90
2021/01/08 02:35:23;;;;;;;22.50;14.40;;;1.40;99.90;;;;;;5039316;28;20181;-90
2021/01/08 02:37:49;;;;;;;19.03;12.90;;;1.40;99.90;;;;;;5039316;28;20219;-91
2021/01/08 02:40:16;;;;;;;20.23;13.40;;;1.40;99.90;;;;;;5055643;28;20233;-92
2021/01/08 02:42:44;;;;;;;20.17;13.40;;;1.40;99.90;;;;;;5056428;28;20178;-90
2021/01/08 02:45:11;;;;;;;20.03;13.60;;;1.40;99.90;;;;;;5022257;28;20609;-90
2021/01/08 02:47:37;;;;;;;21.90;14.10;;;1.40;99.90;;;;;;5038696;28;20284;-91
2021/01/08 02:50:03;;;;;;;21.67;14.33;;;1.40;99.90;;;;;;5039059;28;20272;-91
2021/01/08 02:52:30;;;;;;;19.70;13.37;;;1.40;99.90;;;;;;5056535;28;20181;-90
2021/01/08 02:54:57;;;;;;;22.60;14.37;;;1.40;99.90;;;;;;5056580;28;20607;-91
2021/01/08 02:57:25;;;;;;;18.47;12.90;;;1.40;99.90;;;;;;5038746;28;20185;-91
2021/01/08 02:59:53;;;;;;;19.47;13.20;;;1.50;99.90;;;;;;5038489;28;20291;-89
2021/01/08 03:02:20;;;;;;;19.13;12.33;;;1.50;99.90;;;;;;5038410;28;20182;-91
2021/01/08 03:04:45;;;;;;;15.27;10.73;;;1.50;99.90;;;;;;5037912;28;20188;-91
2021/01/08 03:07:13;;;;;;;16.07;10.73;;;1.50;99.90;;;;;;5038854;28;20201;-91
2021/01/08 03:09:39;;;;;;;15.03;10.93;;;1.50;99.90;;;;;;5037128;28;20235;-89
2021/01/08 03:12:06;;;;;;;13.30;9.93;;;1.50;99.90;;;;;;5055079;28;20185;-91
2021/01/08 03:14:31;;;;;;;16.57;10.53;;;1.50;99.90;;;;;;5037385;28;20290;-91
2021/01/08 03:16:58;;;;;;;13.73;9.63;;;1.60;99.90;;;;;;5037392;28;20238;-91
2021/01/08 03:19:25;;;;;;;15.03;10.10;;;1.60;99.90;;;;;;5056483;28;20609;-91
2021/01/08 03:21:54;;;;;;;13.77;10.40;;;1.60;99.90;;;;;;5442699;23;21139;-96
2021/01/08 03:24:24;;;;;;;13.30;10.10;;;1.60;99.90;;;;;;4991707;28;20223;-96
2021/01/08 03:26:55;;;;;;;14.77;10.23;;;1.50;99.90;;;;;;5008408;28;20192;-96
2021/01/08 03:29:34;;;;;;;13.90;10.00;;;1.50;99.90;;;;;;5010424;28;20178;-96
2021/01/08 03:32:04;;;;;;;15.50;10.20;;;1.50;99.90;;;;;;4987549;23;20247;-96
2021/01/08 03:35:09;;;;;;;14.67;10.93;;;1.40;99.90;;;;;;5053206;28;20196;-96
2021/01/08 03:37:38;;;;;;;13.57;10.00;;;1.40;99.90;;;;;;5046947;28;20182;-96
2021/01/08 03:40:06;;;;;;;14.40;10.23;;;1.40;99.90;;;;;;5055530;28;20174;-96
2021/01/08 03:42:54;;;;;;;;;;;;;;;;;;;;;
2021/01/08 03:45:20;;;;;;;14.43;10.10;;;1.40;99.90;;;;;;5050003;28;20222;-96
2021/01/08 03:47:47;;;;;;;15.27;11.10;;;1.40;99.90;;;;;;5052873;28;20285;-96
2021/01/08 03:50:15;;;;;;;13.53;9.73;;;1.40;99.90;;;;;;5055006;28;20193;-96
2021/01/08 03:52:46;;;;;;;12.33;9.57;;;1.50;99.90;;;;;;5051014;28;20179;-96
2021/01/08 03:55:19;;;;;;;13.40;10.00;;;1.40;99.90;;;;;;5037164;28;20182;-96
2021/01/08 03:57:46;;;;;;;13.10;9.53;;;1.50;99.90;;;;;;5049905;28;20178;-96
2021/01/08 04:00:23;;;;;;;15.00;10.50;;;1.40;99.90;;;;;;5051747;28;20210;-96
2021/01/08 04:02:53;;;;;;;15.87;11.23;;;1.40;99.90;;;;;;5050829;28;20194;-96
2021/01/08 04:05:25;;;;;;;15.97;11.20;;;1.40;99.90;;;;;;5049957;28;20187;-96
2021/01/08 04:07:56;;;;;;;15.73;11.10;;;1.40;99.90;;;;;;5053074;28;20237;-96
2021/01/08 04:10:39;;;;;;;17.83;12.07;;;1.40;99.90;;;;;;5071789;23;20238;-96
2021/01/08 04:13:51;;;;;;;17.33;11.50;;;1.40;99.90;;;;;;5001752;28;20249;-97
2021/01/08 04:16:23;;;;;;;17.40;11.87;;;1.40;99.90;;;;;;5032279;28;20235;-96
2021/01/08 04:19:02;;;;;;;15.80;10.83;;;1.40;99.90;;;;;;5030998;28;20189;-96
2021/01/08 04:21:36;;;;;;;19.27;12.83;;;1.40;99.90;;;;;;5014377;28;20179;-96
2021/01/08 04:24:51;;;;;;;16.63;11.73;;;1.40;99.90;;;;;;5030983;28;20238;-96
2021/01/08 04:27:22;;;;;;;18.20;12.57;;;1.30;99.90;;;;;;4995122;28;20653;-96
2021/01/08 04:30:00;;;;;;;17.47;11.87;;;1.30;99.90;;;;;;5009680;28;20191;-96
2021/01/08 04:32:29;;;;;;;17.63;12.57;;;1.40;99.90;;;;;;4998664;28;20278;-96
2021/01/08 04:34:55;;;;;;;21.10;13.47;;;1.40;99.90;;;;;;5007438;28;20322;-96
2021/01/08 04:37:29;;;;;;;17.70;12.27;;;1.40;99.90;;;;;;5023281;28;20645;-96
2021/01/08 04:39:58;;;;;;;19.90;12.23;;;1.40;99.90;;;;;;4991636;23;20232;-96
2021/01/08 04:42:26;;;;;;;20.83;12.90;;;1.30;99.90;;;;;;4987383;28;20618;-96
2021/01/08 04:44:53;;;;;;;17.53;11.90;;;1.40;99.90;;;;;;4985849;28;20190;-96
2021/01/08 04:47:22;;;;;;;20.13;13.00;;;1.30;99.90;;;;;;5004697;28;20203;-96
2021/01/08 04:49:51;;;;;;;16.87;12.00;;;1.30;99.90;;;;;;5003062;28;20183;-96
2021/01/08 04:52:19;;;;;;;16.60;12.20;;;1.30;99.90;;;;;;5002016;28;20302;-96
2021/01/08 04:54:46;;;;;;;18.93;13.00;;;1.30;99.90;;;;;;5001351;28;20194;-96
2021/01/08 04:57:15;;;;;;;18.60;12.87;;;1.30;99.90;;;;;;5002874;28;20602;-96
2021/01/08 04:59:41;;;;;;;19.70;13.20;;;1.30;99.90;;;;;;5002480;28;20218;-96
2021/01/08 05:02:07;;;;;;;17.83;12.50;;;1.30;99.90;;;;;;5001786;28;20178;-96
2021/01/08 05:04:37;;;;;;;19.13;12.90;;;1.40;99.90;;;;;;4999896;28;20521;-96
2021/01/08 05:07:03;;;;;;;16.00;11.67;;;1.40;99.90;;;;;;5017057;28;20214;-96
2021/01/08 05:09:33;;;;;;;20.77;13.43;;;1.40;99.90;;;;;;5000364;28;20183;-96
2021/01/08 05:12:00;;;;;;;20.43;13.47;;;1.40;99.90;;;;;;4999513;28;20220;-96
2021/01/08 05:14:27;;;;;;;19.73;13.20;;;1.40;99.90;;;;;;4999243;28;20615;-96
2021/01/08 05:16:55;;;;;;;19.67;13.13;;;1.40;99.90;;;;;;4999226;28;20632;-96
2021/01/08 05:19:24;;;;;;;20.70;13.37;;;1.30;99.90;;;;;;4999157;28;20257;-96
2021/01/08 05:21:54;;;;;;;20.50;12.87;;;1.30;99.90;;;;;;4998460;28;20628;-96
2021/01/08 05:24:23;;;;;;;20.50;13.63;;;1.30;99.90;;;;;;4996810;28;20522;-96
2021/01/08 05:26:52;;;;;;;21.33;13.77;;;1.30;99.90;;;;;;4995994;28;20303;-96
2021/01/08 05:29:20;;;;;;;22.33;14.13;;;1.30;99.90;;;;;;4995327;28;20506;-96
2021/01/08 05:31:47;;;;;;;22.83;14.43;;;1.30;99.90;;;;;;4996665;28;20519;-96
2021/01/08 05:34:22;;;;;;;22.33;13.73;;;1.30;99.90;;;;;;4994982;28;20274;-96
2021/01/08 05:36:49;;;;;;;19.47;13.37;;;1.30;99.90;;;;;;4995343;28;20179;-96
2021/01/08 05:39:23;;;;;;;25.87;14.10;;;1.30;99.90;;;;;;4991609;28;20191;-96
2021/01/08 05:41:52;;;;;;;25.00;14.77;;;1.30;99.90;;;;;;4960836;28;20169;-96
2021/01/08 05:44:18;;;;;;;24.47;13.83;;;1.30;99.90;;;;;;4944802;29;20277;-96
2021/01/08 05:46:46;;;;;;;22.27;14.07;;;1.20;99.90;;;;;;4960815;29;20200;-96
2021/01/08 05:49:14;;;;;;;22.73;13.87;;;1.20;99.90;;;;;;4961745;29;20181;-96
2021/01/08 05:51:40;;;;;;;23.07;14.67;;;1.30;99.90;;;;;;4959568;29;20614;-96
2021/01/08 05:54:09;;;;;;;20.77;12.83;;;1.20;99.90;;;;;;4961537;28;20188;-96
2021/01/08 05:56:37;;;;;;;25.53;13.93;;;1.20;99.90;;;;;;4951057;29;20241;-96
2021/01/08 05:59:04;;;;;;;22.53;14.00;;;1.20;99.90;;;;;;4959953;29;20206;-96
2021/01/08 06:01:37;;;;;;;21.43;13.37;;;1.30;99.90;;;;;;4960066;29;20284;-96
2021/01/08 06:04:04;;;;;;;20.40;13.10;;;1.30;99.90;;;;;;4961907;29;20170;-96
2021/01/08 06:06:45;;;;;;;22.60;13.23;;;1.30;99.90;;;;;;4959464;29;20177;-96
2021/01/08 06:09:12;;;;;;;21.40;13.07;;;1.30;99.90;;;;;;4961013;29;20215;-96
2021/01/08 06:11:40;;;;;;;20.13;12.23;;;1.20;99.90;;;;;;4959315;29;20185;-96
2021/01/08 06:14:07;;;;;;;20.57;12.70;;;1.30;99.90;;;;;;4990279;23;20233;-96
2021/01/08 06:16:41;;;;;;;20.40;12.53;;;1.30;99.90;;;;;;5041878;28;20272;-96
2021/01/08 06:19:07;;;;;;;20.53;12.33;;;1.20;99.90;;;;;;5062514;28;20600;-96
2021/01/08 06:21:42;;;;;;;22.67;13.90;;;1.20;99.90;;;;;;5041701;28;20191;-96
2021/01/08 06:24:28;;;;;;;19.77;12.97;;;1.20;99.90;;;;;;5040437;28;20220;-96
2021/01/08 06:26:55;;;;;;;21.10;12.80;;;1.20;99.90;;;;;;5040596;28;20182;-96
2021/01/08 06:29:24;;;;;;;21.97;12.67;;;1.20;99.90;;;;;;5042724;28;20186;-96
2021/01/08 06:31:59;;;;;;;19.70;12.90;;;1.20;99.90;;;;;;5044770;28;20178;-96
2021/01/08 06:34:27;;;;;;;20.27;12.27;;;1.20;99.90;;;;;;5041255;28;20274;-96
2021/01/08 06:37:11;;;;;;;21.17;13.40;;;1.20;99.90;;;;;;5049881;28;20620;-96
2021/01/08 06:39:41;;;;;;;20.77;13.23;;;1.20;99.90;;;;;;5040816;28;20188;-96
2021/01/08 06:42:08;;;;;;;19.33;12.80;;;1.20;99.90;;;;;;5039044;28;20182;-96
2021/01/08 06:44:34;;;;;;;20.80;12.93;;;1.20;99.90;;;;;;5037508;28;20204;-96
2021/01/08 06:47:03;;;;;;;20.83;12.70;;;1.20;99.90;;;;;;5039043;28;20168;-95
2021/01/08 06:49:40;;;;;;;21.60;13.50;;;1.20;99.90;;;;;;5038368;28;20236;-96
2021/01/08 06:52:06;;;;;;;20.27;12.60;;;1.10;99.90;;;;;;5038731;28;20178;-96
2021/01/08 06:54:39;;;;;;;19.67;12.70;;;1.20;99.90;;;;;;5020261;28;20265;-96
2021/01/08 06:57:10;;;;;;;21.60;12.17;;;1.10;99.90;;;;;;5039771;28;20209;-96
2021/01/08 06:59:44;;;;;;;21.03;12.73;;;1.10;99.90;;;;;;5019666;28;20171;-96
2021/01/08 07:02:17;;;;;;;22.13;13.07;;;1.20;99.90;;;;;;5038611;28;20162;-96
2021/01/08 07:04:47;;;;;;;20.93;12.00;;;1.20;99.90;;;;;;5025005;28;20190;-96
2021/01/08 07:07:27;;;;;;;20.60;12.43;;;1.20;99.90;;;;;;5024830;28;20222;-96
2021/01/08 07:09:57;;;;;;;20.50;12.67;;;1.10;99.90;;;;;;5026234;28;20266;-96
2021/01/08 07:12:24;;;;;;;17.73;10.87;;;1.20;99.90;;;;;;5023728;28;20186;-96
2021/01/08 07:14:51;;;;;;;17.97;11.83;;;1.10;99.90;;;;;;5022910;28;20234;-96
2021/01/08 07:17:27;;;;;;;18.77;11.87;;;1.10;99.90;;;;;;5025976;28;20182;-96
2021/01/08 07:19:53;;;;;;;19.13;11.70;;;1.10;99.90;;;;;;5026347;28;20178;-96
2021/01/08 07:22:40;;;;;;;18.60;11.87;;;1.20;99.90;;;;;;5033882;28;20210;-96
2021/01/08 07:25:12;;;;;;;15.97;10.87;;;1.20;99.90;;;;;;5062444;28;20201;-96
2021/01/08 07:27:41;;;;;;;18.10;11.70;;;1.20;99.90;;;;;;5042785;28;20215;-96
2021/01/08 07:30:25;;;;;;;19.33;11.77;;;1.20;99.90;;;;;;5043636;28;20189;-96
2021/01/08 07:32:52;;;;;;;19.47;11.20;;;1.20;99.90;;;;;;5013697;28;20386;-96
2021/01/08 07:35:31;;;;;;;18.30;11.47;;;1.20;99.90;;;;;;5043433;28;20208;-95
2021/01/08 07:38:12;;;;;;;20.77;12.30;;;1.20;99.90;;;;;;5044993;28;20182;-95
2021/01/08 07:40:59;;;;;;;18.27;11.27;;;1.20;99.90;;;;;;5044999;28;20174;-95
2021/01/08 07:43:36;;;;;;;18.90;11.73;;;1.30;99.90;;;;;;5042217;28;20305;-95
2021/01/08 07:46:05;;;;;;;17.17;10.63;;;1.20;99.90;;;;;;5040672;28;20630;-96
2021/01/08 07:48:40;;;;;;;18.43;11.77;;;1.30;99.90;;;;;;5041479;28;20214;-95
2021/01/08 07:51:15;;;;;;;16.60;10.87;;;1.30;99.90;;;;;;5044327;28;20185;-94
2021/01/08 07:53:41;;;;;;;16.27;11.10;;;1.30;99.90;;;;;;5037865;28;20210;-95
2021/01/08 07:56:17;;;;;;;17.17;10.73;;;1.30;99.90;;;;;;5023997;28;20229;-96
2021/01/08 07:59:03;;;;;;;15.60;10.27;;;1.30;99.90;;;;;;5023235;28;20173;-96
2021/01/08 08:01:30;;;;;;;15.20;10.10;;;1.30;99.90;;;;;;5024347;28;20171;-95
2021/01/08 08:04:04;;;;;;;18.17;10.77;;;1.30;99.90;;;;;;5040943;28;20178;-96
2021/01/08 08:06:36;;;;;;;16.10;10.60;;;1.30;99.90;;;;;;5024166;28;20178;-95
2021/01/08 08:09:13;;;;;;;15.87;10.20;;;1.30;99.90;;;;;;5022790;28;20217;-96
2021/01/08 08:11:39;;;;;;;14.10;9.60;;;1.30;99.90;;;;;;5048557;28;20174;-95
2021/01/08 08:14:09;;;;;;;17.67;10.77;;;1.30;99.90;;;;;;5018048;28;20290;-96
2021/01/08 08:16:41;;;;;;;16.73;10.13;;;1.30;99.90;;;;;;5028583;28;20288;-95
2021/01/08 08:19:09;;;;;;;15.43;9.90;;;1.30;99.90;;;;;;5045901;28;20194;-95
2021/01/08 08:21:35;;;;;;;15.60;10.17;;;1.30;99.90;;;;;;5021599;28;20170;-95
2021/01/08 08:24:06;;;;;;;15.67;9.03;;;1.30;99.90;;;;;;5063873;28;20185;-96
2021/01/08 08:26:36;;;;;;;18.53;10.30;;;1.30;99.90;;;;;;5026952;28;20253;-96
2021/01/08 08:29:16;;;;;;;14.73;9.70;;;1.30;99.90;;;;;;5044090;28;20194;-95
2021/01/08 08:31:48;;;;;;;14.87;9.47;;;1.30;99.90;;;;;;5042603;28;20184;-96
2021/01/08 08:34:15;;;;;;;14.63;9.27;;;1.40;99.90;;;;;;5044278;28;20170;-96
2021/01/08 08:36:42;;;;;;;14.47;9.67;;;1.30;99.90;;;;;;5042488;28;20181;-95
2021/01/08 08:39:08;;;;;;;15.73;9.80;;;1.30;99.90;;;;;;5040536;28;20228;-95
2021/01/08 08:41:37;;;;;;;15.00;9.60;;;1.20;99.90;;;;;;5040302;28;20262;-96
2021/01/08 08:44:10;;;;;;;13.97;8.97;;;1.30;99.90;;;;;;5042358;28;20243;-94
2021/01/08 08:46:50;;;;;;;14.67;9.00;;;1.30;99.90;;;;;;5026487;28;20180;-96
2021/01/08 08:49:21;;;;;;;11.47;8.23;;;1.30;99.90;;;;;;5027041;28;20261;-96
2021/01/08 08:51:49;;;;;;;14.97;9.20;;;1.30;99.90;;;;;;5019724;28;20175;-94
2021/01/08 08:54:16;;;;;;;15.37;8.47;;;1.30;99.90;;;;;;5038920;28;20178;-94
2021/01/08 08:57:01;;;;;;;13.17;8.60;;;1.30;99.90;;;;;;5038768;28;20178;-95
2021/01/08 08:59:46;;;;;;;15.17;10.53;;;1.30;99.90;;;;;;5038950;28;20627;-95
2021/01/08 09:02:29;;;;;;;14.93;8.73;;;1.40;99.90;;;;;;5027750;28;20178;-96
2021/01/08 09:05:02;;;;;;;12.10;8.43;;;1.40;99.90;;;;;;5017508;28;20205;-96
2021/01/08 09:07:50;;;;;;;12.17;7.80;;;1.40;99.90;;;;;;5018721;28;20217;-96
2021/01/08 09:10:28;;;;;;;12.40;8.37;;;1.40;99.90;;;;;;5020472;28;20189;-96
2021/01/08 09:13:07;;;;;;;11.07;7.53;;;1.30;99.90;;;;;;5019620;28;20186;-96
2021/01/08 09:15:41;;;;;;;10.43;7.00;;;1.40;99.90;;;;;;5018858;28;20230;-96
2021/01/08 09:18:25;;;;;;;12.97;7.03;;;1.40;99.90;;;;;;5020331;28;20186;-96
2021/01/08 09:21:02;;;;;;;9.53;6.57;;;1.50;99.90;;;;;;5020820;28;20185;-96
2021/01/08 09:23:34;;;;;;;11.27;7.33;;;1.50;99.90;;;;;;5032495;28;20631;-96
2021/01/08 09:26:04;;;;;;;8.83;6.40;;;1.50;99.90;;;;;;5056531;28;20258;-96
2021/01/08 09:28:39;;;;;;;11.20;7.20;;;1.40;99.90;;;;;;5040273;28;20202;-96
2021/01/08 09:31:05;;;;;;;11.50;7.37;;;1.40;99.90;;;;;;5037881;28;20166;-96
2021/01/08 09:33:31;;;;;;;10.87;7.43;;;1.50;99.90;;;;;;5038314;28;20178;-96
2021/01/08 09:35:58;;;;;;;10.30;6.67;;;1.50;99.90;;;;;;5048542;28;20178;-96
2021/01/08 09:38:24;;;;;;;10.20;7.13;;;1.50;99.90;;;;;;5041352;28;20170;-96
2021/01/08 09:40:52;;;;;;;9.87;6.93;;;1.60;99.90;;;;;;5038858;28;20182;-96
2021/01/08 09:43:18;;;;;;;10.30;7.13;;;1.60;99.90;;;;;;5038076;28;20231;-96
2021/01/08 09:45:45;;;;;;;9.53;6.90;;;1.60;99.90;;;;;;5037954;28;20680;-96
2021/01/08 09:48:23;;;;;;;8.63;6.20;;;1.60;99.90;;;;;;5038481;28;20214;-96
2021/01/08 09:51:06;;;;;;;10.63;7.30;;;1.60;99.90;;;;;;5039170;28;20196;-96
2021/01/08 09:53:34;;;;;;;9.93;6.83;;;1.50;99.90;;;;;;5038228;28;20647;-96
2021/01/08 09:56:16;;;;;;;9.23;6.67;;;1.60;99.90;;;;;;5038577;28;20178;-96
2021/01/08 09:58:43;;;;;;;9.47;6.57;;;1.60;99.90;;;;;;5037818;28;20177;-96
2021/01/08 10:01:13;;;;;;;10.80;7.20;;;1.60;99.90;;;;;;5038086;28;20190;-96
2021/01/08 10:03:40;;;;;;;10.70;7.00;;;1.60;99.90;;;;;;5038435;28;20765;-96
2021/01/08 10:06:10;;;;;;;9.83;6.30;;;1.50;99.90;;;;;;5022145;28;20305;-96
2021/01/08 10:08:37;;;;;;;8.00;5.30;;;1.60;99.90;;;;;;5018507;28;20195;-96
2021/01/08 10:11:05;;;;;;;9.07;6.67;;;1.60;99.90;;;;;;5021210;28;20525;-96
2021/01/08 10:13:32;;;;;;;8.77;6.10;;;1.70;99.90;;;;;;5018095;28;20225;-96
2021/01/08 10:16:06;;;;;;;8.77;5.63;;;1.70;99.90;;;;;;5034393;28;20319;-95
2021/01/08 10:18:33;;;;;;;8.30;5.80;;;1.70;99.90;;;;;;5025399;28;20181;-96
2021/01/08 10:21:06;;;;;;;8.43;5.93;;;1.70;99.90;;;;;;5025708;28;20230;-96
2021/01/08 10:23:43;;;;;;;6.97;5.10;;;1.70;99.90;;;;;;5034251;28;20196;-95
2021/01/08 10:26:17;;;;;;;7.07;4.93;;;1.70;99.90;;;;;;5037071;28;20251;-95
2021/01/08 10:28:56;;;;;;;9.57;5.60;;;1.70;99.90;;;;;;5028376;28;20259;-95
2021/01/08 10:31:24;;;;;;;8.20;6.00;;;1.70;99.90;;;;;;5032592;28;20189;-94
2021/01/08 10:33:51;;;;;;;8.23;5.87;;;1.70;99.90;;;;;;5018512;28;20636;-95
2021/01/08 10:36:17;;;;;;;8.67;6.27;;;1.70;99.90;;;;;;5018137;28;20221;-95
2021/01/08 10:38:43;;;;;;;11.37;6.67;;;1.70;99.90;;;;;;5027033;28;20197;-95
2021/01/08 10:41:09;;;;;;;8.90;6.33;;;1.70;99.90;;;;;;5023094;28;20539;-96
2021/01/08 10:43:37;;;;;;;8.80;6.30;;;1.70;99.90;;;;;;5035520;28;20187;-96
2021/01/08 10:46:04;;;;;;;7.83;6.07;;;1.80;99.90;;;;;;5036791;28;20268;-94
2021/01/08 10:48:30;;;;;;;8.07;5.67;;;1.70;99.90;;;;;;5053836;28;20259;-96
2021/01/08 10:50:57;;;;;;;10.63;6.60;;;1.70;99.90;;;;;;5032847;28;20184;-96
2021/01/08 10:53:23;;;;;;;10.40;6.97;;;1.80;99.90;;;;;;5040841;28;20221;-95
2021/01/08 10:55:50;;;;;;;15.27;9.40;;;1.80;99.90;;;;;;5040745;28;20181;-94
2021/01/08 10:58:18;;;;;;;10.20;6.43;;;1.70;99.90;;;;;;5037375;28;20189;-94
2021/01/08 11:00:44;;;;;;;10.50;6.60;;;1.70;99.90;;;;;;5038316;28;20216;-96
2021/01/08 11:03:10;;;;;;;12.67;6.10;;;1.80;99.90;;;;;;5024157;28;20196;-95
2021/01/08 11:05:40;;;;;;;10.27;5.73;;;1.70;99.90;;;;;;5033504;28;20546;-95
2021/01/08 11:08:09;;;;;;;5.40;4.67;;;1.70;99.90;;;;;;5040395;28;20625;-94
2021/01/08 11:10:35;;;;;;;7.67;4.40;;;1.70;99.90;;;;;;5037918;28;20211;-95
2021/01/08 11:13:01;;;;;;;7.00;4.67;;;1.60;99.90;;;;;;5037400;28;20511;-93
2021/01/08 11:15:27;;;;;;;6.03;4.47;;;1.70;99.90;;;;;;5036277;28;20225;-93
2021/01/08 11:17:53;;;;;;;5.50;4.37;;;1.60;99.90;;;;;;5035941;28;20189;-94
2021/01/08 11:20:19;;;;;;;8.37;4.70;;;1.60;99.90;;;;;;5036893;28;20182;-95
2021/01/08 11:22:44;;;;;;;5.67;3.93;;;1.60;99.90;;;;;;5040223;28;20941;-95
2021/01/08 11:25:13;;;;;;;5.60;4.03;;;1.60;99.90;;;;;;5030772;28;20179;-95
2021/01/08 11:27:39;;;;;;;5.67;4.13;;;1.60;99.90;;;;;;5038416;28;20190;-93
2021/01/08 11:30:06;;;;;;;7.70;4.90;;;1.60;99.90;;;;;;5039339;28;20252;-95
2021/01/08 11:32:32;;;;;;;5.30;4.30;;;1.70;99.90;;;;;;5037619;28;20177;-96
2021/01/08 11:34:57;;;;;;;5.87;3.77;;;1.70;99.90;;;;;;5038588;28;20265;-95
2021/01/08 11:37:23;;;;;;;4.93;3.97;;;1.60;99.90;;;;;;5039771;28;20177;-96
2021/01/08 11:39:49;;;;;;;5.00;3.87;;;1.60;99.90;;;;;;5054877;28;20240;-96
2021/01/08 11:42:15;;;;;;;5.00;3.73;;;1.60;99.90;;;;;;5042208;28;20193;-96
2021/01/08 11:44:42;;;;;;;5.83;4.23;;;1.70;99.90;;;;;;5041076;28;20178;-96
2021/01/08 11:47:08;;;;;;;5.80;4.17;;;1.70;99.90;;;;;;5034478;28;20241;-96
2021/01/08 11:49:34;;;;;;;4.03;3.30;;;1.80;99.90;;;;;;5033503;28;20201;-96
2021/01/08 11:51:59;;;;;;;5.80;2.93;;;1.80;99.90;;;;;;5043909;28;20182;-95
2021/01/08 11:54:25;;;;;;;4.13;3.20;;;1.80;99.90;;;;;;5043092;28;20509;-95
2021/01/08 11:56:54;;;;;;;3.67;2.60;;;1.80;99.90;;;;;;5041007;28;20178;-95
2021/01/08 11:59:20;;;;;;;4.40;2.80;;;1.80;99.90;;;;;;5044905;28;20182;-96
2021/01/08 12:01:46;;;;;;;4.00;3.07;;;1.80;99.90;;;;;;5040918;28;20281;-96
2021/01/08 12:04:12;;;;;;;4.60;3.60;;;1.80;99.90;;;;;;5039919;28;20235;-96
2021/01/08 12:06:38;;;;;;;3.60;2.97;;;1.80;99.90;;;;;;5041288;28;20185;-96
2021/01/08 12:09:10;;;;;;;3.63;2.90;;;1.90;99.90;;;;;;5041101;28;20213;-96
2021/01/08 12:11:35;;;;;;;4.30;3.43;;;2.00;99.90;;;;;;5040304;28;20324;-96
2021/01/08 12:14:01;;;;;;;4.20;3.17;;;2.10;99.90;;;;;;5058597;28;20221;-96
2021/01/08 12:16:31;;;;;;;4.60;3.80;;;2.20;99.90;;;;;;5042044;28;20646;-96
2021/01/08 12:18:57;;;;;;;3.00;2.60;;;2.20;99.90;;;;;;5050576;28;20184;-96
2021/01/08 12:21:24;;;;;;;3.13;2.73;;;2.20;99.90;;;;;;5049085;28;20188;-96
2021/01/08 12:23:51;;;;;;;3.60;2.83;;;2.20;99.90;;;;;;5026499;28;20523;-96
2021/01/08 12:26:17;;;;;;;3.67;2.70;;;2.20;99.90;;;;;;5022649;28;20652;-96
2021/01/08 12:28:44;;;;;;;3.67;2.83;;;2.10;99.90;;;;;;5023176;28;20218;-96
2021/01/08 12:31:12;;;;;;;3.63;3.10;;;2.10;99.90;;;;;;5022294;28;20197;-96
2021/01/08 12:33:38;;;;;;;5.10;4.20;;;2.10;99.90;;;;;;5020929;28;20189;-96
2021/01/08 12:36:05;;;;;;;5.97;4.40;;;2.10;99.90;;;;;;5021208;28;20277;-96
2021/01/08 12:38:32;;;;;;;6.33;4.07;;;2.10;99.90;;;;;;5020015;28;20182;-96
2021/01/08 12:41:02;;;;;;;5.47;4.37;;;2.10;99.90;;;;;;5020182;28;20178;-96
2021/01/08 12:43:28;;;;;;;6.47;5.17;;;2.00;99.90;;;;;;5025446;28;20268;-96
2021/01/08 12:45:53;;;;;;;7.93;4.57;;;2.00;99.90;;;;;;5029010;28;20221;-96
2021/01/08 12:48:19;;;;;;;6.17;4.60;;;1.90;99.90;;;;;;5026660;28;20261;-96
2021/01/08 12:50:51;;;;;;;6.03;4.80;;;1.90;99.90;;;;;;5029855;28;20181;-96
2021/01/08 12:53:17;;;;;;;5.67;4.30;;;1.90;99.90;;;;;;5032380;28;20197;-96
2021/01/08 12:55:42;;;;;;;6.93;5.37;;;1.90;99.90;;;;;;5037878;28;20585;-96